Azalea, Virginia
Current Conditions -  °F | °C
As of 7:54 PM on Tuesday 21 Oct 2014 (Local Time) from KOFP Reporting Station
Broken Clouds Broken Clouds  
Wind Chill: 58°   Ceiling: 12000
Heat Index: 58°   Visibility: 10mi
Dew Point: 50°   Wind: 7mph
Humidity: 75%   Direction: NA
Pressure: 29.89"   Gusts: NA
Location:  37.619°N, 77.441°W
Report Text: KOFP 212354Z AUTO VRB06KT 10SM FEW047 FEW055 BKN120 14/10 A2989 RMK AO2 PK WND 30028/2309 SLP119 T01440100 10222 20144 53024
Loading
Personal Weather Stations






























Interactive Weather Map New forecast layout! Learn more

10-Day Weather Forecast

Advertisements
Track Severe Weather on mobile